sensor_id;sensor_type;location;lat;lon;timestamp;P1;durP1;ratioP1;P2;durP2;ratioP2
49314;SDS011;36672;50.710;12.498;2022-12-29T00:02:08;1.85;;;1.00;;
49314;SDS011;36672;50.710;12.498;2022-12-29T00:04:33;1.75;;;0.90;;
49314;SDS011;36672;50.710;12.498;2022-12-29T00:06:59;1.58;;;1.02;;
49314;SDS011;36672;50.710;12.498;2022-12-29T00:09:25;1.60;;;0.88;;
49314;SDS011;36672;50.710;12.498;2022-12-29T00:11:50;2.65;;;0.95;;
49314;SDS011;36672;50.710;12.498;2022-12-29T00:14:16;1.45;;;0.90;;
49314;SDS011;36672;50.710;12.498;2022-12-29T00:19:26;1.27;;;0.80;;
49314;SDS011;36672;50.710;12.498;2022-12-29T00:22:10;1.60;;;0.90;;
49314;SDS011;36672;50.710;12.498;2022-12-29T00:24:56;3.40;;;1.00;;
49314;SDS011;36672;50.710;12.498;2022-12-29T00:27:34;1.23;;;0.82;;
49314;SDS011;36672;50.710;12.498;2022-12-29T00:30:19;1.55;;;0.80;;
49314;SDS011;36672;50.710;12.498;2022-12-29T00:33:09;1.75;;;1.05;;
49314;SDS011;36672;50.710;12.498;2022-12-29T00:35:58;1.48;;;0.80;;
49314;SDS011;36672;50.710;12.498;2022-12-29T00:38:26;1.73;;;0.75;;
49314;SDS011;36672;50.710;12.498;2022-12-29T00:41:11;1.05;;;0.80;;
49314;SDS011;36672;50.710;12.498;2022-12-29T00:43:55;0.95;;;0.77;;
49314;SDS011;36672;50.710;12.498;2022-12-29T00:46:30;2.47;;;0.90;;
49314;SDS011;36672;50.710;12.498;2022-12-29T00:48:59;0.77;;;0.70;;
49314;SDS011;36672;50.710;12.498;2022-12-29T00:51:43;1.23;;;0.80;;
49314;SDS011;36672;50.710;12.498;2022-12-29T00:54:09;1.63;;;0.80;;
49314;SDS011;36672;50.710;12.498;2022-12-29T00:56:35;1.55;;;0.85;;
49314;SDS011;36672;50.710;12.498;2022-12-29T00:59:04;1.10;;;0.80;;
49314;SDS011;36672;50.710;12.498;2022-12-29T01:01:31;1.30;;;0.90;;
49314;SDS011;36672;50.710;12.498;2022-12-29T01:03:57;1.27;;;0.80;;
49314;SDS011;36672;50.710;12.498;2022-12-29T01:06:22;1.05;;;0.90;;
49314;SDS011;36672;50.710;12.498;2022-12-29T01:08:47;2.70;;;1.17;;
49314;SDS011;36672;50.710;12.498;2022-12-29T01:11:32;1.60;;;0.88;;
49314;SDS011;36672;50.710;12.498;2022-12-29T01:13:58;1.05;;;0.80;;
49314;SDS011;36672;50.710;12.498;2022-12-29T01:16:23;3.30;;;0.93;;
49314;SDS011;36672;50.710;12.498;2022-12-29T01:18:48;1.50;;;0.80;;
49314;SDS011;36672;50.710;12.498;2022-12-29T01:21:14;1.98;;;1.00;;
49314;SDS011;36672;50.710;12.498;2022-12-29T01:23:39;3.00;;;1.20;;
49314;SDS011;36672;50.710;12.498;2022-12-29T01:26:11;2.90;;;1.02;;
49314;SDS011;36672;50.710;12.498;2022-12-29T01:28:38;1.33;;;0.90;;
49314;SDS011;36672;50.710;12.498;2022-12-29T01:31:05;1.90;;;0.90;;
49314;SDS011;36672;50.710;12.498;2022-12-29T01:33:30;1.73;;;1.00;;
49314;SDS011;36672;50.710;12.498;2022-12-29T01:35:59;1.25;;;0.80;;
49314;SDS011;36672;50.710;12.498;2022-12-29T01:38:29;1.87;;;0.87;;
49314;SDS011;36672;50.710;12.498;2022-12-29T01:40:54;3.13;;;1.23;;
49314;SDS011;36672;50.710;12.498;2022-12-29T01:43:20;2.08;;;0.80;;
49314;SDS011;36672;50.710;12.498;2022-12-29T01:45:48;1.27;;;0.90;;
49314;SDS011;36672;50.710;12.498;2022-12-29T01:48:16;3.10;;;0.80;;
49314;SDS011;36672;50.710;12.498;2022-12-29T01:50:50;2.30;;;1.10;;
49314;SDS011;36672;50.710;12.498;2022-12-29T01:55:46;2.53;;;0.90;;
49314;SDS011;36672;50.710;12.498;2022-12-29T01:58:16;1.33;;;0.88;;
49314;SDS011;36672;50.710;12.498;2022-12-29T02:00:45;1.50;;;0.80;;
49314;SDS011;36672;50.710;12.498;2022-12-29T02:03:10;2.70;;;1.15;;
49314;SDS011;36672;50.710;12.498;2022-12-29T02:05:45;1.88;;;1.08;;
49314;SDS011;36672;50.710;12.498;2022-12-29T02:08:21;2.53;;;1.10;;
49314;SDS011;36672;50.710;12.498;2022-12-29T02:10:49;1.83;;;1.00;;
49314;SDS011;36672;50.710;12.498;2022-12-29T02:13:16;1.92;;;0.85;;
49314;SDS011;36672;50.710;12.498;2022-12-29T02:15:56;1.73;;;0.82;;
49314;SDS011;36672;50.710;12.498;2022-12-29T02:18:28;1.80;;;0.85;;
49314;SDS011;36672;50.710;12.498;2022-12-29T02:26:49;1.48;;;0.93;;
49314;SDS011;36672;50.710;12.498;2022-12-29T02:29:42;1.48;;;0.75;;
49314;SDS011;36672;50.710;12.498;2022-12-29T02:45:36;1.70;;;0.80;;
49314;SDS011;36672;50.710;12.498;2022-12-29T02:48:20;2.58;;;1.10;;
49314;SDS011;36672;50.710;12.498;2022-12-29T02:51:13;1.92;;;1.02;;
49314;SDS011;36672;50.710;12.498;2022-12-29T02:53:43;2.63;;;1.02;;
49314;SDS011;36672;50.710;12.498;2022-12-29T02:56:28;2.08;;;1.05;;
49314;SDS011;36672;50.710;12.498;2022-12-29T02:58:53;1.73;;;1.08;;
49314;SDS011;36672;50.710;12.498;2022-12-29T03:01:29;1.83;;;0.93;;
49314;SDS011;36672;50.710;12.498;2022-12-29T03:04:37;4.53;;;0.90;;
49314;SDS011;36672;50.710;12.498;2022-12-29T03:07:15;1.90;;;0.98;;
49314;SDS011;36672;50.710;12.498;2022-12-29T03:15:34;1.38;;;0.70;;
49314;SDS011;36672;50.710;12.498;2022-12-29T03:24:08;2.97;;;0.77;;
49314;SDS011;36672;50.710;12.498;2022-12-29T03:26:33;1.13;;;0.90;;
49314;SDS011;36672;50.710;12.498;2022-12-29T03:29:01;1.15;;;0.90;;
49314;SDS011;36672;50.710;12.498;2022-12-29T03:31:27;1.15;;;0.80;;
49314;SDS011;36672;50.710;12.498;2022-12-29T03:33:53;3.42;;;0.70;;
49314;SDS011;36672;50.710;12.498;2022-12-29T03:36:23;3.40;;;0.90;;
49314;SDS011;36672;50.710;12.498;2022-12-29T03:39:07;1.90;;;0.98;;
49314;SDS011;36672;50.710;12.498;2022-12-29T03:41:36;2.40;;;0.73;;
49314;SDS011;36672;50.710;12.498;2022-12-29T03:44:08;1.20;;;0.90;;
49314;SDS011;36672;50.710;12.498;2022-12-29T03:46:33;2.20;;;0.90;;
49314;SDS011;36672;50.710;12.498;2022-12-29T03:48:59;5.38;;;1.17;;
49314;SDS011;36672;50.710;12.498;2022-12-29T03:51:24;2.30;;;1.00;;
49314;SDS011;36672;50.710;12.498;2022-12-29T03:53:49;2.55;;;0.95;;
49314;SDS011;36672;50.710;12.498;2022-12-29T03:56:15;4.60;;;0.80;;
49314;SDS011;36672;50.710;12.498;2022-12-29T03:58:40;1.75;;;1.05;;
49314;SDS011;36672;50.710;12.498;2022-12-29T04:01:05;1.58;;;0.90;;
49314;SDS011;36672;50.710;12.498;2022-12-29T04:03:31;3.88;;;0.93;;
49314;SDS011;36672;50.710;12.498;2022-12-29T04:05:56;1.88;;;1.02;;
49314;SDS011;36672;50.710;12.498;2022-12-29T04:08:21;2.15;;;0.90;;
49314;SDS011;36672;50.710;12.498;2022-12-29T04:10:50;2.08;;;0.90;;
49314;SDS011;36672;50.710;12.498;2022-12-29T04:13:15;2.72;;;1.02;;
49314;SDS011;36672;50.710;12.498;2022-12-29T04:15:42;2.30;;;1.08;;
49314;SDS011;36672;50.710;12.498;2022-12-29T04:18:08;2.50;;;1.10;;
49314;SDS011;36672;50.710;12.498;2022-12-29T04:20:33;2.75;;;1.17;;
49314;SDS011;36672;50.710;12.498;2022-12-29T04:23:17;2.05;;;0.80;;
49314;SDS011;36672;50.710;12.498;2022-12-29T04:25:44;2.75;;;1.10;;
49314;SDS011;36672;50.710;12.498;2022-12-29T04:28:12;4.72;;;1.00;;
49314;SDS011;36672;50.710;12.498;2022-12-29T04:30:37;1.95;;;1.20;;
49314;SDS011;36672;50.710;12.498;2022-12-29T04:33:03;3.63;;;1.08;;
49314;SDS011;36672;50.710;12.498;2022-12-29T04:35:28;3.20;;;1.25;;
49314;SDS011;36672;50.710;12.498;2022-12-29T04:37:53;3.10;;;1.10;;
49314;SDS011;36672;50.710;12.498;2022-12-29T04:40:19;3.85;;;1.38;;
49314;SDS011;36672;50.710;12.498;2022-12-29T04:42:44;1.77;;;0.93;;
49314;SDS011;36672;50.710;12.498;2022-12-29T04:45:09;4.15;;;1.17;;
49314;SDS011;36672;50.710;12.498;2022-12-29T04:47:35;2.90;;;1.00;;
49314;SDS011;36672;50.710;12.498;2022-12-29T04:50:00;1.90;;;1.20;;
49314;SDS011;36672;50.710;12.498;2022-12-29T04:52:26;3.63;;;1.20;;
49314;SDS011;36672;50.710;12.498;2022-12-29T04:54:51;2.40;;;0.95;;
49314;SDS011;36672;50.710;12.498;2022-12-29T04:57:17;1.60;;;1.00;;
49314;SDS011;36672;50.710;12.498;2022-12-29T04:59:42;1.55;;;0.80;;
49314;SDS011;36672;50.710;12.498;2022-12-29T05:02:07;1.98;;;0.98;;
49314;SDS011;36672;50.710;12.498;2022-12-29T05:04:32;4.68;;;1.05;;
49314;SDS011;36672;50.710;12.498;2022-12-29T05:06:58;2.78;;;0.95;;
49314;SDS011;36672;50.710;12.498;2022-12-29T05:09:23;2.67;;;1.10;;
49314;SDS011;36672;50.710;12.498;2022-12-29T05:11:49;1.70;;;1.05;;
49314;SDS011;36672;50.710;12.498;2022-12-29T05:14:14;1.65;;;0.93;;
49314;SDS011;36672;50.710;12.498;2022-12-29T05:16:39;2.13;;;1.10;;
49314;SDS011;36672;50.710;12.498;2022-12-29T05:19:05;4.63;;;1.10;;
49314;SDS011;36672;50.710;12.498;2022-12-29T05:21:30;2.08;;;1.10;;
49314;SDS011;36672;50.710;12.498;2022-12-29T05:23:56;3.53;;;1.10;;
49314;SDS011;36672;50.710;12.498;2022-12-29T05:26:21;5.00;;;1.13;;
49314;SDS011;36672;50.710;12.498;2022-12-29T05:28:46;5.03;;;1.92;;
49314;SDS011;36672;50.710;12.498;2022-12-29T05:31:12;4.47;;;1.23;;
49314;SDS011;36672;50.710;12.498;2022-12-29T05:33:37;2.17;;;1.20;;
49314;SDS011;36672;50.710;12.498;2022-12-29T05:36:06;2.38;;;1.13;;
49314;SDS011;36672;50.710;12.498;2022-12-29T05:38:32;2.15;;;1.00;;
49314;SDS011;36672;50.710;12.498;2022-12-29T05:40:58;2.95;;;0.77;;
49314;SDS011;36672;50.710;12.498;2022-12-29T05:43:23;1.80;;;0.75;;
49314;SDS011;36672;50.710;12.498;2022-12-29T05:45:48;2.33;;;1.00;;
49314;SDS011;36672;50.710;12.498;2022-12-29T05:48:14;0.93;;;0.73;;
49314;SDS011;36672;50.710;12.498;2022-12-29T05:50:40;2.95;;;1.20;;
49314;SDS011;36672;50.710;12.498;2022-12-29T05:53:05;1.45;;;0.80;;
49314;SDS011;36672;50.710;12.498;2022-12-29T05:55:30;3.70;;;0.77;;
49314;SDS011;36672;50.710;12.498;2022-12-29T05:57:56;1.67;;;0.80;;
49314;SDS011;36672;50.710;12.498;2022-12-29T06:00:21;1.17;;;0.88;;
49314;SDS011;36672;50.710;12.498;2022-12-29T06:02:47;1.50;;;0.90;;
49314;SDS011;36672;50.710;12.498;2022-12-29T06:05:12;2.10;;;0.90;;
49314;SDS011;36672;50.710;12.498;2022-12-29T06:07:37;1.48;;;0.63;;
49314;SDS011;36672;50.710;12.498;2022-12-29T06:10:03;1.25;;;0.80;;
49314;SDS011;36672;50.710;12.498;2022-12-29T06:12:30;1.58;;;0.80;;
49314;SDS011;36672;50.710;12.498;2022-12-29T06:14:55;1.20;;;1.00;;
49314;SDS011;36672;50.710;12.498;2022-12-29T06:17:20;3.38;;;1.17;;
49314;SDS011;36672;50.710;12.498;2022-12-29T06:19:46;1.58;;;0.95;;
49314;SDS011;36672;50.710;12.498;2022-12-29T06:22:11;1.85;;;1.00;;
49314;SDS011;36672;50.710;12.498;2022-12-29T06:24:37;2.65;;;0.93;;
49314;SDS011;36672;50.710;12.498;2022-12-29T06:27:03;2.28;;;1.10;;
49314;SDS011;36672;50.710;12.498;2022-12-29T06:29:28;1.10;;;0.80;;
49314;SDS011;36672;50.710;12.498;2022-12-29T06:31:53;1.75;;;1.05;;
49314;SDS011;36672;50.710;12.498;2022-12-29T06:34:22;1.75;;;1.08;;
49314;SDS011;36672;50.710;12.498;2022-12-29T06:36:48;1.55;;;0.85;;
49314;SDS011;36672;50.710;12.498;2022-12-29T06:39:13;2.78;;;1.13;;
49314;SDS011;36672;50.710;12.498;2022-12-29T06:41:39;3.95;;;1.20;;
49314;SDS011;36672;50.710;12.498;2022-12-29T06:44:04;1.85;;;1.00;;
49314;SDS011;36672;50.710;12.498;2022-12-29T06:46:30;2.85;;;1.30;;
49314;SDS011;36672;50.710;12.498;2022-12-29T06:48:55;2.13;;;1.00;;
49314;SDS011;36672;50.710;12.498;2022-12-29T06:51:20;1.20;;;0.80;;
49314;SDS011;36672;50.710;12.498;2022-12-29T06:53:45;1.25;;;0.93;;
49314;SDS011;36672;50.710;12.498;2022-12-29T06:56:11;2.95;;;1.00;;
49314;SDS011;36672;50.710;12.498;2022-12-29T06:58:36;1.58;;;1.00;;
49314;SDS011;36672;50.710;12.498;2022-12-29T07:01:01;1.55;;;1.05;;
49314;SDS011;36672;50.710;12.498;2022-12-29T07:03:27;3.30;;;1.10;;
49314;SDS011;36672;50.710;12.498;2022-12-29T07:05:52;2.72;;;1.13;;
49314;SDS011;36672;50.710;12.498;2022-12-29T07:08:19;2.05;;;0.90;;
49314;SDS011;36672;50.710;12.498;2022-12-29T07:10:45;1.45;;;0.93;;
49314;SDS011;36672;50.710;12.498;2022-12-29T07:13:10;3.58;;;1.17;;
49314;SDS011;36672;50.710;12.498;2022-12-29T07:15:36;2.78;;;1.20;;
49314;SDS011;36672;50.710;12.498;2022-12-29T07:18:02;2.60;;;0.95;;
49314;SDS011;36672;50.710;12.498;2022-12-29T07:20:28;2.80;;;1.05;;
49314;SDS011;36672;50.710;12.498;2022-12-29T07:22:54;1.73;;;1.08;;
49314;SDS011;36672;50.710;12.498;2022-12-29T07:25:20;2.90;;;1.10;;
49314;SDS011;36672;50.710;12.498;2022-12-29T07:27:46;2.15;;;1.17;;
49314;SDS011;36672;50.710;12.498;2022-12-29T07:30:11;1.48;;;1.00;;
49314;SDS011;36672;50.710;12.498;2022-12-29T07:32:37;1.30;;;0.98;;
49314;SDS011;36672;50.710;12.498;2022-12-29T07:35:03;3.10;;;1.00;;
49314;SDS011;36672;50.710;12.498;2022-12-29T07:37:28;2.13;;;1.02;;
49314;SDS011;36672;50.710;12.498;2022-12-29T07:39:54;2.50;;;1.10;;
49314;SDS011;36672;50.710;12.498;2022-12-29T07:42:19;2.00;;;0.93;;
49314;SDS011;36672;50.710;12.498;2022-12-29T07:44:44;2.88;;;1.10;;
49314;SDS011;36672;50.710;12.498;2022-12-29T07:47:10;2.38;;;1.13;;
49314;SDS011;36672;50.710;12.498;2022-12-29T07:49:35;3.78;;;1.27;;
49314;SDS011;36672;50.710;12.498;2022-12-29T07:52:00;1.65;;;1.08;;
49314;SDS011;36672;50.710;12.498;2022-12-29T07:54:26;1.90;;;1.00;;
49314;SDS011;36672;50.710;12.498;2022-12-29T07:56:51;1.77;;;0.98;;
49314;SDS011;36672;50.710;12.498;2022-12-29T07:59:16;3.08;;;1.08;;
49314;SDS011;36672;50.710;12.498;2022-12-29T08:01:42;1.20;;;0.90;;
49314;SDS011;36672;50.710;12.498;2022-12-29T08:04:07;2.35;;;1.00;;
49314;SDS011;36672;50.710;12.498;2022-12-29T08:06:33;3.47;;;0.90;;
49314;SDS011;36672;50.710;12.498;2022-12-29T08:08:58;1.60;;;0.98;;
49314;SDS011;36672;50.710;12.498;2022-12-29T08:11:25;1.55;;;0.90;;
49314;SDS011;36672;50.710;12.498;2022-12-29T08:13:50;3.60;;;1.10;;
49314;SDS011;36672;50.710;12.498;2022-12-29T08:16:16;2.08;;;1.10;;
49314;SDS011;36672;50.710;12.498;2022-12-29T08:18:42;1.50;;;1.10;;
49314;SDS011;36672;50.710;12.498;2022-12-29T08:21:07;1.52;;;1.00;;
49314;SDS011;36672;50.710;12.498;2022-12-29T08:23:32;2.97;;;2.42;;
49314;SDS011;36672;50.710;12.498;2022-12-29T08:26:01;6.72;;;5.43;;
49314;SDS011;36672;50.710;12.498;2022-12-29T08:28:28;6.55;;;3.80;;
49314;SDS011;36672;50.710;12.498;2022-12-29T08:30:58;2.20;;;1.73;;
49314;SDS011;36672;50.710;12.498;2022-12-29T08:33:25;2.47;;;1.85;;
49314;SDS011;36672;50.710;12.498;2022-12-29T08:35:51;2.17;;;1.70;;
49314;SDS011;36672;50.710;12.498;2022-12-29T08:38:16;2.10;;;1.50;;
49314;SDS011;36672;50.710;12.498;2022-12-29T08:40:42;1.50;;;1.00;;
49314;SDS011;36672;50.710;12.498;2022-12-29T08:43:08;2.47;;;1.38;;
49314;SDS011;36672;50.710;12.498;2022-12-29T08:45:33;1.33;;;1.10;;
49314;SDS011;36672;50.710;12.498;2022-12-29T08:47:59;2.92;;;1.10;;
49314;SDS011;36672;50.710;12.498;2022-12-29T08:50:24;2.00;;;1.67;;
49314;SDS011;36672;50.710;12.498;2022-12-29T08:52:50;3.85;;;1.70;;
49314;SDS011;36672;50.710;12.498;2022-12-29T08:55:15;2.08;;;1.20;;
49314;SDS011;36672;50.710;12.498;2022-12-29T08:57:40;1.98;;;1.17;;
49314;SDS011;36672;50.710;12.498;2022-12-29T09:00:06;1.90;;;1.10;;
49314;SDS011;36672;50.710;12.498;2022-12-29T09:02:32;2.00;;;0.95;;
49314;SDS011;36672;50.710;12.498;2022-12-29T09:04:57;1.77;;;1.00;;
49314;SDS011;36672;50.710;12.498;2022-12-29T09:07:24;3.92;;;1.10;;
49314;SDS011;36672;50.710;12.498;2022-12-29T09:09:49;2.78;;;1.40;;
49314;SDS011;36672;50.710;12.498;2022-12-29T09:12:15;2.38;;;1.38;;
49314;SDS011;36672;50.710;12.498;2022-12-29T09:14:42;1.58;;;1.08;;
49314;SDS011;36672;50.710;12.498;2022-12-29T09:17:09;1.42;;;0.85;;
49314;SDS011;36672;50.710;12.498;2022-12-29T09:19:54;3.67;;;1.00;;
49314;SDS011;36672;50.710;12.498;2022-12-29T09:22:19;1.67;;;1.00;;
49314;SDS011;36672;50.710;12.498;2022-12-29T09:24:44;2.03;;;0.95;;
49314;SDS011;36672;50.710;12.498;2022-12-29T09:27:10;1.77;;;1.23;;
49314;SDS011;36672;50.710;12.498;2022-12-29T09:29:35;5.57;;;1.27;;
49314;SDS011;36672;50.710;12.498;2022-12-29T09:32:00;1.20;;;1.00;;
49314;SDS011;36672;50.710;12.498;2022-12-29T09:34:26;2.75;;;1.02;;
49314;SDS011;36672;50.710;12.498;2022-12-29T09:36:51;2.85;;;1.25;;
49314;SDS011;36672;50.710;12.498;2022-12-29T09:39:17;1.30;;;0.88;;
49314;SDS011;36672;50.710;12.498;2022-12-29T09:47:19;1.58;;;1.00;;
49314;SDS011;36672;50.710;12.498;2022-12-29T09:49:58;1.73;;;1.10;;
49314;SDS011;36672;50.710;12.498;2022-12-29T09:52:30;2.55;;;1.00;;
49314;SDS011;36672;50.710;12.498;2022-12-29T09:55:10;2.80;;;1.10;;
49314;SDS011;36672;50.710;12.498;2022-12-29T10:02:40;4.63;;;1.10;;
49314;SDS011;36672;50.710;12.498;2022-12-29T10:05:13;2.55;;;1.10;;
49314;SDS011;36672;50.710;12.498;2022-12-29T10:25:17;1.65;;;1.00;;
49314;SDS011;36672;50.710;12.498;2022-12-29T10:27:49;5.50;;;1.20;;
49314;SDS011;36672;50.710;12.498;2022-12-29T10:30:15;3.25;;;0.95;;
49314;SDS011;36672;50.710;12.498;2022-12-29T10:32:45;1.80;;;1.05;;
49314;SDS011;36672;50.710;12.498;2022-12-29T10:40:36;2.92;;;1.10;;
49314;SDS011;36672;50.710;12.498;2022-12-29T10:43:12;2.05;;;0.80;;
49314;SDS011;36672;50.710;12.498;2022-12-29T10:46:04;3.10;;;1.30;;
49314;SDS011;36672;50.710;12.498;2022-12-29T10:48:34;3.90;;;1.20;;
49314;SDS011;36672;50.710;12.498;2022-12-29T10:51:01;1.30;;;0.88;;
49314;SDS011;36672;50.710;12.498;2022-12-29T10:53:34;1.40;;;0.88;;
49314;SDS011;36672;50.710;12.498;2022-12-29T10:56:05;2.53;;;1.15;;
49314;SDS011;36672;50.710;12.498;2022-12-29T10:58:41;1.00;;;0.80;;
49314;SDS011;36672;50.710;12.498;2022-12-29T11:01:09;3.00;;;1.05;;
49314;SDS011;36672;50.710;12.498;2022-12-29T11:06:22;2.25;;;1.00;;
49314;SDS011;36672;50.710;12.498;2022-12-29T11:08:52;3.08;;;1.10;;
49314;SDS011;36672;50.710;12.498;2022-12-29T11:11:26;3.60;;;1.05;;
49314;SDS011;36672;50.710;12.498;2022-12-29T11:13:58;4.18;;;1.30;;
49314;SDS011;36672;50.710;12.498;2022-12-29T11:16:31;2.65;;;1.10;;
49314;SDS011;36672;50.710;12.498;2022-12-29T11:18:59;2.17;;;1.00;;
49314;SDS011;36672;50.710;12.498;2022-12-29T11:21:33;2.80;;;1.10;;
49314;SDS011;36672;50.710;12.498;2022-12-29T11:24:05;1.67;;;0.75;;
49314;SDS011;36672;50.710;12.498;2022-12-29T11:26:43;2.75;;;1.20;;
49314;SDS011;36672;50.710;12.498;2022-12-29T11:31:59;2.17;;;1.10;;
49314;SDS011;36672;50.710;12.498;2022-12-29T11:34:49;2.25;;;1.10;;
49314;SDS011;36672;50.710;12.498;2022-12-29T11:42:40;2.55;;;1.08;;
49314;SDS011;36672;50.710;12.498;2022-12-29T11:45:18;4.35;;;1.30;;
49314;SDS011;36672;50.710;12.498;2022-12-29T11:47:49;2.25;;;1.15;;
49314;SDS011;36672;50.710;12.498;2022-12-29T11:50:28;2.25;;;1.08;;
49314;SDS011;36672;50.710;12.498;2022-12-29T11:53:06;2.65;;;1.10;;
49314;SDS011;36672;50.710;12.498;2022-12-29T11:55:56;2.25;;;0.90;;
49314;SDS011;36672;50.710;12.498;2022-12-29T11:58:31;3.45;;;1.30;;
49314;SDS011;36672;50.710;12.498;2022-12-29T12:01:00;1.75;;;1.08;;
49314;SDS011;36672;50.710;12.498;2022-12-29T12:03:30;5.15;;;1.00;;
49314;SDS011;36672;50.710;12.498;2022-12-29T12:06:02;2.30;;;1.08;;
49314;SDS011;36672;50.710;12.498;2022-12-29T12:11:39;3.33;;;1.20;;
49314;SDS011;36672;50.710;12.498;2022-12-29T12:16:38;3.40;;;1.00;;
49314;SDS011;36672;50.710;12.498;2022-12-29T12:19:13;2.90;;;1.00;;
49314;SDS011;36672;50.710;12.498;2022-12-29T12:22:02;2.15;;;0.98;;
49314;SDS011;36672;50.710;12.498;2022-12-29T12:27:16;2.22;;;1.00;;
49314;SDS011;36672;50.710;12.498;2022-12-29T12:30:05;3.53;;;1.05;;
49314;SDS011;36672;50.710;12.498;2022-12-29T12:35:16;1.40;;;0.93;;
49314;SDS011;36672;50.710;12.498;2022-12-29T12:38:13;3.20;;;1.23;;
49314;SDS011;36672;50.710;12.498;2022-12-29T12:40:54;2.55;;;1.00;;
49314;SDS011;36672;50.710;12.498;2022-12-29T12:59:21;2.35;;;1.20;;
49314;SDS011;36672;50.710;12.498;2022-12-29T13:10:28;2.10;;;0.98;;
49314;SDS011;36672;50.710;12.498;2022-12-29T13:18:50;2.38;;;0.80;;
49314;SDS011;36672;50.710;12.498;2022-12-29T13:21:32;3.10;;;0.98;;
49314;SDS011;36672;50.710;12.498;2022-12-29T13:24:16;1.17;;;0.90;;
49314;SDS011;36672;50.710;12.498;2022-12-29T13:26:54;2.47;;;1.05;;
49314;SDS011;36672;50.710;12.498;2022-12-29T13:37:59;4.25;;;1.08;;
49314;SDS011;36672;50.710;12.498;2022-12-29T13:40:32;1.87;;;1.03;;
49314;SDS011;36672;50.710;12.498;2022-12-29T13:43:01;3.70;;;1.10;;
49314;SDS011;36672;50.710;12.498;2022-12-29T13:45:28;2.05;;;1.05;;
49314;SDS011;36672;50.710;12.498;2022-12-29T13:48:05;2.83;;;0.90;;
49314;SDS011;36672;50.710;12.498;2022-12-29T13:50:38;2.67;;;1.17;;
49314;SDS011;36672;50.710;12.498;2022-12-29T13:58:27;2.92;;;1.02;;
49314;SDS011;36672;50.710;12.498;2022-12-29T14:03:57;3.50;;;1.17;;
49314;SDS011;36672;50.710;12.498;2022-12-29T14:06:26;2.33;;;1.10;;
49314;SDS011;36672;50.710;12.498;2022-12-29T14:08:54;2.42;;;1.20;;
49314;SDS011;36672;50.710;12.498;2022-12-29T14:11:23;2.67;;;1.25;;
49314;SDS011;36672;50.710;12.498;2022-12-29T14:13:55;2.03;;;1.10;;
49314;SDS011;36672;50.710;12.498;2022-12-29T14:16:28;2.55;;;1.10;;
49314;SDS011;36672;50.710;12.498;2022-12-29T14:18:56;3.35;;;1.10;;
49314;SDS011;36672;50.710;12.498;2022-12-29T14:21:30;3.13;;;1.00;;
49314;SDS011;36672;50.710;12.498;2022-12-29T14:26:57;1.55;;;0.90;;
49314;SDS011;36672;50.710;12.498;2022-12-29T14:31:48;1.95;;;1.15;;
49314;SDS011;36672;50.710;12.498;2022-12-29T14:39:26;3.47;;;1.13;;
49314;SDS011;36672;50.710;12.498;2022-12-29T14:47:16;1.17;;;0.90;;
49314;SDS011;36672;50.710;12.498;2022-12-29T14:49:45;2.08;;;0.90;;
49314;SDS011;36672;50.710;12.498;2022-12-29T14:52:21;1.65;;;1.00;;
49314;SDS011;36672;50.710;12.498;2022-12-29T14:57:21;1.30;;;0.70;;
49314;SDS011;36672;50.710;12.498;2022-12-29T15:00:15;1.80;;;0.68;;
49314;SDS011;36672;50.710;12.498;2022-12-29T15:02:43;1.05;;;0.60;;
49314;SDS011;36672;50.710;12.498;2022-12-29T15:05:22;0.80;;;0.50;;
49314;SDS011;36672;50.710;12.498;2022-12-29T15:07:55;0.68;;;0.68;;
49314;SDS011;36672;50.710;12.498;2022-12-29T15:10:22;1.02;;;0.70;;
49314;SDS011;36672;50.710;12.498;2022-12-29T15:12:52;1.65;;;0.65;;
49314;SDS011;36672;50.710;12.498;2022-12-29T15:15:22;1.42;;;0.95;;
49314;SDS011;36672;50.710;12.498;2022-12-29T15:17:49;1.48;;;0.80;;
49314;SDS011;36672;50.710;12.498;2022-12-29T15:20:20;1.17;;;0.80;;
49314;SDS011;36672;50.710;12.498;2022-12-29T15:22:54;1.05;;;0.75;;
49314;SDS011;36672;50.710;12.498;2022-12-29T15:25:22;0.75;;;0.52;;
49314;SDS011;36672;50.710;12.498;2022-12-29T15:27:51;1.55;;;0.65;;
49314;SDS011;36672;50.710;12.498;2022-12-29T15:30:21;1.48;;;0.73;;
49314;SDS011;36672;50.710;12.498;2022-12-29T15:32:50;0.90;;;0.55;;
49314;SDS011;36672;50.710;12.498;2022-12-29T15:35:32;0.60;;;0.60;;
49314;SDS011;36672;50.710;12.498;2022-12-29T15:38:00;0.80;;;0.50;;
49314;SDS011;36672;50.710;12.498;2022-12-29T15:40:38;0.90;;;0.70;;
49314;SDS011;36672;50.710;12.498;2022-12-29T15:45:30;0.98;;;0.70;;
49314;SDS011;36672;50.710;12.498;2022-12-29T15:47:59;1.30;;;0.70;;
49314;SDS011;36672;50.710;12.498;2022-12-29T15:50:29;3.38;;;0.80;;
49314;SDS011;36672;50.710;12.498;2022-12-29T15:52:56;0.73;;;0.60;;
49314;SDS011;36672;50.710;12.498;2022-12-29T15:55:32;1.15;;;0.70;;
49314;SDS011;36672;50.710;12.498;2022-12-29T15:58:01;0.90;;;0.68;;
49314;SDS011;36672;50.710;12.498;2022-12-29T16:00:34;0.95;;;0.60;;
49314;SDS011;36672;50.710;12.498;2022-12-29T16:03:02;0.80;;;0.60;;
49314;SDS011;36672;50.710;12.498;2022-12-29T16:05:39;1.30;;;0.90;;
49314;SDS011;36672;50.710;12.498;2022-12-29T16:11:20;2.17;;;1.20;;
49314;SDS011;36672;50.710;12.498;2022-12-29T16:13:50;2.30;;;1.30;;
49314;SDS011;36672;50.710;12.498;2022-12-29T16:16:19;1.15;;;0.90;;
49314;SDS011;36672;50.710;12.498;2022-12-29T16:18:47;2.35;;;1.20;;
49314;SDS011;36672;50.710;12.498;2022-12-29T16:21:22;1.30;;;0.80;;
49314;SDS011;36672;50.710;12.498;2022-12-29T16:23:51;1.05;;;0.70;;
49314;SDS011;36672;50.710;12.498;2022-12-29T16:26:20;1.08;;;0.80;;
49314;SDS011;36672;50.710;12.498;2022-12-29T16:28:49;1.88;;;0.90;;
49314;SDS011;36672;50.710;12.498;2022-12-29T16:31:23;1.52;;;0.75;;
49314;SDS011;36672;50.710;12.498;2022-12-29T16:33:58;3.70;;;0.80;;
49314;SDS011;36672;50.710;12.498;2022-12-29T16:36:40;1.05;;;0.80;;
49314;SDS011;36672;50.710;12.498;2022-12-29T16:39:28;1.30;;;0.68;;
49314;SDS011;36672;50.710;12.498;2022-12-29T16:41:58;3.30;;;0.80;;
49314;SDS011;36672;50.710;12.498;2022-12-29T16:44:25;0.80;;;0.70;;
49314;SDS011;36672;50.710;12.498;2022-12-29T16:49:36;1.95;;;1.08;;
49314;SDS011;36672;50.710;12.498;2022-12-29T16:52:17;1.75;;;0.90;;
49314;SDS011;36672;50.710;12.498;2022-12-29T16:54:50;1.17;;;0.70;;
49314;SDS011;36672;50.710;12.498;2022-12-29T16:57:22;3.45;;;0.90;;
49314;SDS011;36672;50.710;12.498;2022-12-29T16:59:50;1.58;;;0.80;;
49314;SDS011;36672;50.710;12.498;2022-12-29T17:02:19;3.72;;;1.00;;
49314;SDS011;36672;50.710;12.498;2022-12-29T17:04:47;1.83;;;1.00;;
49314;SDS011;36672;50.710;12.498;2022-12-29T17:07:18;1.77;;;1.10;;
49314;SDS011;36672;50.710;12.498;2022-12-29T17:09:45;2.40;;;1.40;;
49314;SDS011;36672;50.710;12.498;2022-12-29T17:12:14;3.08;;;1.27;;
49314;SDS011;36672;50.710;12.498;2022-12-29T17:17:13;2.17;;;1.38;;
49314;SDS011;36672;50.710;12.498;2022-12-29T17:19:42;2.90;;;1.50;;
49314;SDS011;36672;50.710;12.498;2022-12-29T17:22:19;2.50;;;1.60;;
49314;SDS011;36672;50.710;12.498;2022-12-29T17:24:49;3.78;;;1.50;;
49314;SDS011;36672;50.710;12.498;2022-12-29T17:27:49;2.88;;;1.45;;
49314;SDS011;36672;50.710;12.498;2022-12-29T17:30:11;2.50;;;1.52;;
49314;SDS011;36672;50.710;12.498;2022-12-29T17:32:38;5.30;;;1.83;;
49314;SDS011;36672;50.710;12.498;2022-12-29T17:35:05;3.67;;;1.75;;
49314;SDS011;36672;50.710;12.498;2022-12-29T17:37:37;1.95;;;1.30;;